Time;durP1;ratioP1;P1;durP2;ratioP2;P2;SDS_P1;SDS_P2;PMS_P1;PMS_P2;Temp;Humidity;BMP_temperature;BMP_pressure;BME280_temperature;BME280_humidity;BME280_pressure;Samples;Min_cycle;Max_cycle;Signal;HPM_P1;HPM_P2
2021/03/09 00:02:17;;;;;;;59.20;32.40;;;8.20;99.90;;;;;;5054804;28;20199;-75
2021/03/09 00:04:44;;;;;;;65.78;31.95;;;8.10;99.90;;;;;;5037030;28;20183;-75
2021/03/09 00:07:10;;;;;;;52.08;30.50;;;8.10;99.90;;;;;;5057353;28;20298;-75
2021/03/09 00:09:35;;;;;;;55.65;31.08;;;8.20;99.90;;;;;;5073692;28;20650;-74
2021/03/09 00:12:01;;;;;;;60.17;31.25;;;8.20;99.90;;;;;;5075274;28;20199;-74
2021/03/09 00:14:27;;;;;;;56.13;30.00;;;8.20;99.90;;;;;;5054535;28;20179;-76
2021/03/09 00:16:52;;;;;;;59.15;30.42;;;8.20;99.90;;;;;;5074099;28;20174;-75
2021/03/09 00:19:18;;;;;;;59.65;29.98;;;8.10;99.90;;;;;;5073510;28;20182;-75
2021/03/09 00:21:44;;;;;;;58.00;30.77;;;8.10;99.90;;;;;;5053840;28;20191;-74
2021/03/09 00:24:09;;;;;;;52.22;29.95;;;8.20;99.90;;;;;;5053910;28;20184;-75
2021/03/09 00:26:35;;;;;;;58.50;30.05;;;8.10;99.90;;;;;;5067279;28;20202;-74
2021/03/09 00:29:00;;;;;;;60.22;30.85;;;8.10;99.90;;;;;;5062506;28;20257;-74
2021/03/09 00:31:26;;;;;;;59.38;30.20;;;8.20;99.90;;;;;;5034946;28;20204;-75
2021/03/09 00:33:52;;;;;;;61.67;29.88;;;8.20;99.90;;;;;;5037404;28;20168;-76
2021/03/09 00:36:17;;;;;;;60.40;29.88;;;8.20;99.90;;;;;;5074990;28;20296;-75
2021/03/09 00:38:43;;;;;;;58.10;29.77;;;8.20;99.90;;;;;;5047685;28;20175;-75
2021/03/09 00:41:09;;;;;;;51.92;29.60;;;8.10;99.90;;;;;;5073365;28;20178;-74
2021/03/09 00:43:36;;;;;;;57.50;31.08;;;8.10;99.90;;;;;;5054630;28;20181;-75
2021/03/09 00:46:01;;;;;;;53.38;29.63;;;8.10;99.90;;;;;;5038884;28;20652;-74
2021/03/09 00:48:38;;;;;;;63.05;30.25;;;8.00;99.90;;;;;;5071045;28;20208;-75
2021/03/09 00:51:04;;;;;;;50.25;29.10;;;8.10;99.90;;;;;;5048885;28;20662;-74
2021/03/09 00:53:30;;;;;;;55.70;28.67;;;8.10;99.90;;;;;;5070907;28;20258;-75
2021/03/09 00:55:55;;;;;;;52.63;28.63;;;8.00;99.90;;;;;;5052800;28;20176;-75
2021/03/09 00:58:21;;;;;;;52.83;28.65;;;7.90;99.90;;;;;;5035782;28;20172;-75
2021/03/09 01:00:47;;;;;;;65.93;30.85;;;7.80;99.90;;;;;;5062910;28;20202;-75
2021/03/09 01:03:12;;;;;;;63.63;30.35;;;7.70;99.90;;;;;;5074506;28;20177;-75
2021/03/09 01:05:38;;;;;;;57.88;30.48;;;7.80;99.90;;;;;;5044988;28;20168;-75
2021/03/09 01:08:04;;;;;;;61.07;31.23;;;7.80;99.90;;;;;;5073990;28;20181;-76
2021/03/09 01:10:30;;;;;;;65.97;31.48;;;7.70;99.90;;;;;;5049082;28;20545;-75
2021/03/09 01:12:56;;;;;;;61.47;30.30;;;7.60;99.90;;;;;;5049348;28;20215;-74
2021/03/09 01:15:21;;;;;;;60.03;30.30;;;7.50;99.90;;;;;;5074294;28;20647;-74
2021/03/09 01:17:47;;;;;;;61.15;31.88;;;7.50;99.90;;;;;;5072304;28;20250;-75
2021/03/09 01:20:13;;;;;;;59.23;31.23;;;7.60;99.90;;;;;;5057435;28;20274;-74
2021/03/09 01:22:39;;;;;;;54.83;30.87;;;7.40;99.90;;;;;;5055779;28;20616;-74
2021/03/09 01:25:06;;;;;;;63.13;32.43;;;7.30;99.90;;;;;;5053422;28;20183;-74
2021/03/09 01:27:32;;;;;;;67.22;32.20;;;7.30;99.90;;;;;;5039207;28;20179;-74
2021/03/09 01:29:57;;;;;;;62.30;32.30;;;7.40;99.90;;;;;;5064702;28;20178;-75
2021/03/09 01:32:23;;;;;;;71.93;32.03;;;7.40;99.90;;;;;;5073637;28;20209;-74
2021/03/09 01:34:49;;;;;;;65.23;32.27;;;7.30;99.90;;;;;;5062562;28;20762;-75
2021/03/09 01:37:15;;;;;;;59.50;30.43;;;7.40;99.90;;;;;;5033867;28;20194;-75
2021/03/09 01:39:40;;;;;;;67.70;31.97;;;7.40;99.90;;;;;;5044008;28;20200;-74
2021/03/09 01:42:06;;;;;;;64.25;31.85;;;7.30;99.90;;;;;;5063201;28;20182;-75
2021/03/09 01:44:32;;;;;;;67.27;32.87;;;7.30;99.90;;;;;;5068386;28;20185;-75
2021/03/09 01:47:01;;;;;;;73.23;33.53;;;7.30;99.90;;;;;;5046062;28;20266;-75
2021/03/09 01:49:33;;;;;;;59.63;32.47;;;7.20;99.90;;;;;;5064519;28;20167;-75
2021/03/09 01:51:58;;;;;;;68.43;31.93;;;7.20;99.90;;;;;;5066162;28;20206;-75
2021/03/09 01:54:24;;;;;;;56.83;31.13;;;7.20;99.90;;;;;;5062952;28;20236;-76
2021/03/09 01:56:50;;;;;;;60.53;31.13;;;7.10;99.90;;;;;;5017536;28;20183;-74
2021/03/09 01:59:17;;;;;;;61.40;31.40;;;7.20;99.90;;;;;;5015190;28;20703;-75
2021/03/09 02:01:43;;;;;;;58.95;31.67;;;7.20;99.90;;;;;;5030638;28;20198;-76
2021/03/09 02:04:10;;;;;;;56.97;29.38;;;7.20;99.90;;;;;;5035260;28;20183;-75
2021/03/09 02:06:35;;;;;;;57.50;29.80;;;7.20;99.90;;;;;;5063222;28;20269;-75
2021/03/09 02:09:02;;;;;;;57.47;30.07;;;7.10;99.90;;;;;;5050150;28;20265;-74
2021/03/09 02:11:52;;;;;;;53.30;29.30;;;7.10;99.90;;;;;;5043252;28;20202;-74
2021/03/09 02:14:28;;;;;;;60.72;31.27;;;7.10;99.90;;;;;;5051782;28;20210;-75
2021/03/09 02:17:10;;;;;;;58.80;28.70;;;7.00;99.90;;;;;;5073039;28;20177;-74
2021/03/09 02:19:54;;;;;;;53.03;28.43;;;7.10;99.90;;;;;;5042797;28;20232;-75
2021/03/09 02:22:38;;;;;;;58.37;30.13;;;7.10;99.90;;;;;;5029410;28;20179;-75
2021/03/09 02:25:32;;;;;;;55.60;28.65;;;7.00;99.90;;;;;;5055773;28;20300;-75
2021/03/09 02:28:35;;;;;;;57.03;29.50;;;7.00;99.90;;;;;;5073369;28;20190;-75
2021/03/09 02:31:01;;;;;;;63.17;30.67;;;7.00;99.90;;;;;;5049343;28;20617;-75
2021/03/09 02:33:35;;;;;;;61.93;30.30;;;7.10;99.90;;;;;;5052934;28;20618;-75
2021/03/09 02:36:20;;;;;;;54.77;28.07;;;7.10;99.90;;;;;;5051590;28;20207;-75
2021/03/09 02:39:01;;;;;;;60.37;28.63;;;7.10;99.90;;;;;;5071254;28;20717;-75
2021/03/09 02:41:29;;;;;;;57.70;27.42;;;7.10;99.90;;;;;;5073321;28;20642;-74
2021/03/09 02:43:56;;;;;;;59.78;27.60;;;7.10;99.90;;;;;;5070173;28;20239;-74
2021/03/09 02:46:24;;;;;;;53.92;27.40;;;7.20;99.90;;;;;;5050737;28;20193;-75
2021/03/09 02:48:52;;;;;;;49.88;28.02;;;7.20;99.90;;;;;;5053220;28;20167;-75
2021/03/09 02:51:22;;;;;;;52.28;27.23;;;7.20;99.90;;;;;;5034364;28;20199;-75
2021/03/09 02:53:51;;;;;;;49.20;26.42;;;7.20;99.90;;;;;;5035211;28;20653;-75
2021/03/09 02:56:18;;;;;;;55.95;26.70;;;7.10;99.90;;;;;;5064422;28;20235;-76
2021/03/09 02:58:47;;;;;;;47.87;25.63;;;7.10;99.90;;;;;;5072844;28;20171;-74
2021/03/09 03:01:13;;;;;;;48.90;25.30;;;7.20;99.90;;;;;;5068953;28;20640;-75
2021/03/09 03:03:42;;;;;;;46.40;26.88;;;7.20;99.90;;;;;;5053327;28;20273;-75
2021/03/09 03:06:10;;;;;;;56.23;26.67;;;7.20;99.90;;;;;;5068709;28;20313;-75
2021/03/09 03:08:37;;;;;;;47.67;26.52;;;7.20;99.90;;;;;;5054779;28;20508;-74
2021/03/09 03:11:04;;;;;;;51.50;26.90;;;7.10;99.90;;;;;;5071268;28;20672;-75
2021/03/09 03:13:31;;;;;;;46.13;24.43;;;7.10;99.90;;;;;;5071140;28;20190;-75
2021/03/09 03:15:59;;;;;;;50.20;25.50;;;7.10;99.90;;;;;;5068385;28;20186;-75
2021/03/09 03:18:29;;;;;;;51.37;25.60;;;7.00;99.90;;;;;;5035502;28;20709;-75
2021/03/09 03:20:55;;;;;;;44.37;25.47;;;6.90;99.90;;;;;;5056492;28;20167;-75
2021/03/09 03:23:23;;;;;;;51.53;26.37;;;6.90;99.90;;;;;;5063552;28;20236;-75
2021/03/09 03:25:54;;;;;;;51.10;26.65;;;6.90;99.90;;;;;;5060965;28;20183;-75
2021/03/09 03:28:21;;;;;;;46.10;25.30;;;6.90;99.90;;;;;;5056314;28;20214;-75
2021/03/09 03:30:47;;;;;;;51.30;25.30;;;7.00;99.90;;;;;;5067719;28;20627;-75
2021/03/09 03:33:14;;;;;;;45.17;25.38;;;6.90;99.90;;;;;;5061943;28;20188;-75
2021/03/09 03:35:40;;;;;;;48.37;24.93;;;6.90;99.90;;;;;;5048050;28;20186;-75
2021/03/09 03:38:06;;;;;;;49.90;26.30;;;6.90;99.90;;;;;;5057998;28;20228;-75
2021/03/09 03:40:32;;;;;;;51.73;26.77;;;6.90;99.90;;;;;;5074577;28;20193;-74
2021/03/09 03:42:57;;;;;;;50.70;27.90;;;6.90;99.90;;;;;;5055436;28;20178;-75
2021/03/09 03:45:24;;;;;;;44.92;27.05;;;6.90;99.90;;;;;;5037722;28;20182;-75
2021/03/09 03:47:56;;;;;;;56.70;26.53;;;7.00;99.90;;;;;;5055669;28;20532;-74
2021/03/09 03:50:22;;;;;;;43.73;25.73;;;6.90;99.90;;;;;;5059679;28;20166;-75
2021/03/09 03:53:22;;;;;;;52.63;26.10;;;6.90;99.90;;;;;;5040357;28;20561;-75
2021/03/09 03:56:15;;;;;;;55.57;26.53;;;6.90;99.90;;;;;;5043942;28;20217;-75
2021/03/09 03:59:09;;;;;;;51.13;27.77;;;7.00;99.90;;;;;;5075907;28;20242;-75
2021/03/09 04:01:39;;;;;;;52.00;26.77;;;7.10;99.90;;;;;;5054646;28;20213;-75
2021/03/09 04:04:08;;;;;;;58.05;26.67;;;7.00;99.90;;;;;;5056277;28;20171;-75
2021/03/09 04:06:35;;;;;;;54.88;27.90;;;7.10;99.90;;;;;;5054262;28;20172;-74
2021/03/09 04:09:07;;;;;;;47.30;25.13;;;7.10;99.90;;;;;;5055543;28;20698;-75
2021/03/09 04:11:35;;;;;;;53.28;27.52;;;7.00;99.90;;;;;;5072050;28;20267;-74
2021/03/09 04:14:02;;;;;;;56.60;27.33;;;7.10;99.90;;;;;;5072425;28;20194;-74
2021/03/09 04:16:30;;;;;;;53.87;28.43;;;7.20;99.90;;;;;;5054371;28;20179;-75
2021/03/09 04:18:56;;;;;;;52.25;28.40;;;7.20;99.90;;;;;;5061487;28;20182;-75
2021/03/09 04:21:24;;;;;;;53.78;27.30;;;7.20;99.90;;;;;;5040665;28;20613;-74
2021/03/09 04:23:51;;;;;;;50.33;27.02;;;7.10;99.90;;;;;;5073522;28;20175;-75
2021/03/09 04:26:17;;;;;;;55.42;27.33;;;7.10;99.90;;;;;;5061265;28;20674;-75
2021/03/09 04:28:43;;;;;;;62.65;27.30;;;7.20;99.90;;;;;;5059666;28;20190;-75
2021/03/09 04:31:10;;;;;;;48.77;26.97;;;7.10;99.90;;;;;;5058138;28;20261;-75
2021/03/09 04:33:36;;;;;;;58.88;29.58;;;7.10;99.90;;;;;;5075508;28;20174;-75
2021/03/09 04:36:04;;;;;;;49.78;27.63;;;7.10;99.90;;;;;;5066673;28;20549;-75
2021/03/09 04:38:30;;;;;;;57.50;28.33;;;7.10;99.90;;;;;;5041203;28;20696;-74
2021/03/09 04:40:56;;;;;;;52.38;27.73;;;7.00;99.90;;;;;;5055200;28;20208;-74
2021/03/09 04:43:22;;;;;;;49.87;27.30;;;7.00;99.90;;;;;;5045503;28;20188;-74
2021/03/09 04:45:48;;;;;;;59.77;29.00;;;7.10;99.90;;;;;;5035050;28;20182;-74
2021/03/09 04:48:14;;;;;;;53.40;28.60;;;7.10;99.90;;;;;;5055272;28;20181;-75
2021/03/09 04:50:40;;;;;;;59.73;28.87;;;7.20;99.90;;;;;;5056855;28;20166;-75
2021/03/09 04:53:06;;;;;;;51.50;28.70;;;7.10;99.90;;;;;;5055276;28;20206;-75
2021/03/09 04:55:32;;;;;;;54.30;27.57;;;7.10;99.90;;;;;;5055475;28;20618;-74
2021/03/09 04:57:58;;;;;;;56.50;28.63;;;7.10;99.90;;;;;;5047952;28;20597;-75
2021/03/09 05:00:25;;;;;;;53.70;28.50;;;7.20;99.90;;;;;;5047883;28;20188;-74
2021/03/09 05:02:52;;;;;;;56.40;28.63;;;7.10;99.90;;;;;;5070438;28;20195;-74
2021/03/09 05:05:21;;;;;;;58.37;27.97;;;7.10;99.90;;;;;;5074310;28;20190;-75
2021/03/09 05:07:47;;;;;;;60.37;30.23;;;7.00;99.90;;;;;;5066230;28;20178;-74
2021/03/09 05:10:14;;;;;;;58.77;30.03;;;7.00;99.90;;;;;;5059834;28;20258;-75
2021/03/09 05:12:43;;;;;;;54.43;29.23;;;7.10;99.90;;;;;;5054850;28;20203;-75
2021/03/09 05:15:10;;;;;;;57.30;28.97;;;7.00;99.90;;;;;;5059659;28;20588;-74
2021/03/09 05:17:36;;;;;;;56.77;28.60;;;7.00;99.90;;;;;;5052782;28;20171;-74
2021/03/09 05:20:04;;;;;;;55.13;28.30;;;6.90;99.90;;;;;;5023634;28;20269;-75
2021/03/09 05:22:30;;;;;;;59.70;29.20;;;6.80;99.90;;;;;;5056199;28;20169;-75
2021/03/09 05:24:56;;;;;;;57.63;29.47;;;6.70;99.90;;;;;;5054648;28;20170;-75
2021/03/09 05:27:21;;;;;;;62.53;28.10;;;6.70;99.90;;;;;;5071394;28;20595;-75
2021/03/09 05:29:47;;;;;;;58.23;29.03;;;6.60;99.90;;;;;;5050067;28;20175;-75
2021/03/09 05:32:13;;;;;;;52.27;27.87;;;6.60;99.90;;;;;;5055760;28;20234;-74
2021/03/09 05:34:38;;;;;;;55.03;27.33;;;6.50;99.90;;;;;;5033277;28;20182;-75
2021/03/09 05:37:07;;;;;;;55.13;29.67;;;6.50;99.90;;;;;;5073700;28;20245;-74
2021/03/09 05:39:33;;;;;;;55.00;27.35;;;6.50;99.90;;;;;;5054728;28;20547;-75
2021/03/09 05:41:59;;;;;;;50.93;28.73;;;6.60;99.90;;;;;;5070875;28;20174;-75
2021/03/09 05:44:25;;;;;;;54.87;29.67;;;6.60;99.90;;;;;;5059854;28;20183;-74
2021/03/09 05:46:50;;;;;;;52.67;29.43;;;6.60;99.90;;;;;;5053655;28;20520;-74
2021/03/09 05:49:16;;;;;;;58.77;29.63;;;6.60;99.90;;;;;;5052950;28;20258;-75
2021/03/09 05:51:41;;;;;;;58.37;30.20;;;6.60;99.90;;;;;;5073737;28;20555;-75
2021/03/09 05:54:07;;;;;;;55.47;29.00;;;6.70;99.90;;;;;;5073547;28;20220;-76
2021/03/09 05:56:33;;;;;;;58.90;29.67;;;6.70;99.90;;;;;;5031396;28;20179;-75
2021/03/09 05:58:58;;;;;;;56.27;30.23;;;6.80;99.90;;;;;;5015966;28;20187;-74
2021/03/09 06:01:24;;;;;;;54.80;30.03;;;6.80;99.90;;;;;;5030363;28;20208;-75
2021/03/09 06:03:50;;;;;;;60.70;30.43;;;6.70;99.90;;;;;;5044875;28;20179;-75
2021/03/09 06:06:16;;;;;;;62.63;32.33;;;6.80;99.90;;;;;;5059378;28;20185;-75
2021/03/09 06:08:41;;;;;;;55.17;29.87;;;7.00;99.90;;;;;;5064867;28;20586;-75
2021/03/09 06:11:14;;;;;;;65.47;31.63;;;7.10;99.90;;;;;;5073338;28;20206;-75
2021/03/09 06:13:40;;;;;;;59.70;30.97;;;7.10;99.90;;;;;;5047051;28;20170;-75
2021/03/09 06:16:06;;;;;;;59.73;30.77;;;7.10;99.90;;;;;;5052045;28;20190;-75
2021/03/09 06:18:32;;;;;;;61.07;31.50;;;7.10;99.90;;;;;;5053150;28;20195;-75
2021/03/09 06:21:27;;;;;;;65.00;31.67;;;7.10;99.90;;;;;;5046679;28;20167;-74
2021/03/09 06:23:53;;;;;;;60.57;31.27;;;7.10;99.90;;;;;;5035289;28;20226;-75
2021/03/09 06:26:37;;;;;;;61.60;31.20;;;7.10;99.90;;;;;;5065982;28;20190;-75
2021/03/09 06:29:13;;;;;;;54.37;30.00;;;7.10;99.90;;;;;;5068256;28;20178;-75
2021/03/09 06:31:41;;;;;;;70.03;32.83;;;7.00;99.90;;;;;;5054931;28;20635;-74
2021/03/09 06:34:34;;;;;;;62.13;30.73;;;7.00;99.90;;;;;;5054146;28;20182;-75
2021/03/09 06:37:00;;;;;;;63.97;31.90;;;6.90;99.90;;;;;;5069618;28;20178;-75
2021/03/09 06:39:40;;;;;;;65.83;33.90;;;6.90;99.90;;;;;;5071888;28;20584;-74
2021/03/09 06:42:06;;;;;;;67.57;31.73;;;7.00;99.90;;;;;;5073074;28;20240;-75
2021/03/09 06:44:31;;;;;;;70.40;32.03;;;7.10;99.90;;;;;;5068565;28;20182;-75
2021/03/09 06:46:57;;;;;;;63.37;33.07;;;7.10;99.90;;;;;;5035448;28;20673;-75
2021/03/09 06:49:23;;;;;;;65.03;31.60;;;7.10;99.90;;;;;;5053242;28;20172;-75
2021/03/09 06:51:48;;;;;;;60.53;31.30;;;7.10;99.90;;;;;;5053454;28;20345;-74
2021/03/09 06:54:14;;;;;;;62.92;32.83;;;7.10;99.90;;;;;;5058417;28;20209;-75
2021/03/09 06:56:44;;;;;;;62.80;31.17;;;7.20;99.90;;;;;;5071048;28;20183;-74
2021/03/09 06:59:20;;;;;;;65.97;32.73;;;7.30;99.90;;;;;;5058913;28;20216;-75
2021/03/09 07:02:04;;;;;;;59.00;32.28;;;7.40;99.90;;;;;;5048498;28;20203;-74
2021/03/09 07:04:30;;;;;;;62.33;31.50;;;7.50;99.90;;;;;;5036896;28;20268;-75
2021/03/09 07:06:56;;;;;;;67.15;32.35;;;7.60;99.90;;;;;;5070725;28;20616;-75
2021/03/09 07:09:22;;;;;;;71.53;33.93;;;7.50;99.90;;;;;;5074352;28;20178;-75
2021/03/09 07:11:49;;;;;;;63.90;32.63;;;7.40;99.90;;;;;;5075221;28;20203;-75
2021/03/09 07:14:16;;;;;;;65.70;32.63;;;7.50;99.90;;;;;;5066783;28;20179;-75
2021/03/09 07:16:49;;;;;;;61.13;32.15;;;7.50;99.90;;;;;;5037556;28;20210;-75
2021/03/09 07:19:35;;;;;;;67.03;33.47;;;7.50;99.90;;;;;;5056186;28;20176;-74
2021/03/09 07:22:05;;;;;;;64.70;32.20;;;7.60;99.90;;;;;;5045349;28;20179;-75
2021/03/09 07:24:31;;;;;;;70.13;33.57;;;7.60;99.90;;;;;;5037647;28;20632;-75
2021/03/09 07:27:03;;;;;;;66.15;32.83;;;7.60;99.90;;;;;;5066008;28;20206;-74
2021/03/09 07:29:31;;;;;;;66.33;33.73;;;7.60;99.90;;;;;;5055873;28;20484;-76
2021/03/09 07:32:00;;;;;;;67.23;32.67;;;7.60;99.90;;;;;;5076170;28;20289;-75
2021/03/09 07:34:27;;;;;;;66.53;35.03;;;7.60;99.90;;;;;;5038469;28;20187;-74
2021/03/09 07:36:55;;;;;;;57.08;31.98;;;7.70;99.90;;;;;;5073479;28;20175;-74
2021/03/09 07:39:21;;;;;;;64.18;31.98;;;7.80;99.90;;;;;;5076047;28;20186;-75
2021/03/09 07:41:47;;;;;;;63.53;31.90;;;7.80;99.90;;;;;;5073445;28;20196;-75
2021/03/09 07:44:15;;;;;;;65.70;32.95;;;7.80;99.90;;;;;;5074807;28;20715;-74
2021/03/09 07:46:42;;;;;;;73.82;34.83;;;8.00;99.90;;;;;;5052142;28;20242;-74
2021/03/09 07:49:08;;;;;;;61.88;31.65;;;8.00;99.90;;;;;;5038176;28;20171;-76
2021/03/09 07:51:33;;;;;;;70.63;33.00;;;8.10;99.90;;;;;;5036988;28;20206;-75
2021/03/09 07:54:16;;;;;;;66.50;32.13;;;8.10;99.90;;;;;;5055782;28;20246;-75
2021/03/09 07:57:16;;;;;;;71.73;33.47;;;8.10;99.90;;;;;;5062112;28;20179;-75
2021/03/09 08:00:05;;;;;;;62.78;32.30;;;8.10;99.90;;;;;;5034067;28;20299;-74
2021/03/09 08:02:54;;;;;;;71.93;33.53;;;8.00;99.90;;;;;;5073142;28;20191;-75
2021/03/09 08:05:22;;;;;;;64.70;32.20;;;8.00;99.90;;;;;;5072980;28;20183;-74
2021/03/09 08:07:58;;;;;;;66.03;34.20;;;8.00;99.90;;;;;;5063246;28;20533;-75
2021/03/09 08:10:32;;;;;;;71.00;33.20;;;8.10;99.90;;;;;;5050824;28;20654;-75
2021/03/09 08:13:07;;;;;;;69.85;32.67;;;8.10;99.90;;;;;;5064233;28;20206;-75
2021/03/09 08:15:36;;;;;;;60.05;32.75;;;8.20;99.90;;;;;;5072393;28;20189;-75
2021/03/09 08:18:23;;;;;;;66.00;33.30;;;8.20;99.90;;;;;;5073611;28;20179;-75
2021/03/09 08:20:54;;;;;;;69.43;38.15;;;8.10;99.90;;;;;;5067501;28;20472;-75
2021/03/09 08:23:33;;;;;;;69.38;39.85;;;8.10;99.90;;;;;;5074426;28;20402;-77
2021/03/09 08:26:03;;;;;;;66.80;41.35;;;8.20;99.90;;;;;;5059832;28;20443;-74
2021/03/09 08:28:35;;;;;;;67.82;34.63;;;8.40;99.90;;;;;;5046527;28;20175;-74
2021/03/09 08:31:13;;;;;;;69.35;34.42;;;8.50;99.90;;;;;;5073712;28;20190;-75
2021/03/09 08:33:43;;;;;;;65.30;34.13;;;8.60;99.90;;;;;;5054677;28;20187;-75
2021/03/09 08:36:24;;;;;;;63.42;32.85;;;8.60;99.90;;;;;;5036565;28;20183;-76
2021/03/09 08:39:05;;;;;;;62.00;33.25;;;8.60;99.90;;;;;;5044474;28;20277;-75
2021/03/09 08:41:36;;;;;;;66.25;32.70;;;8.70;99.90;;;;;;5070487;28;20181;-75
2021/03/09 08:44:17;;;;;;;59.67;32.45;;;8.70;99.90;;;;;;5055561;28;20179;-74
2021/03/09 08:47:04;;;;;;;66.75;35.97;;;8.60;99.90;;;;;;5072491;28;20669;-74
2021/03/09 08:49:35;;;;;;;64.25;34.38;;;8.60;99.90;;;;;;5074667;28;20181;-74
2021/03/09 08:52:08;;;;;;;65.50;33.55;;;8.70;99.90;;;;;;5066751;28;20334;-75
2021/03/09 08:54:41;;;;;;;63.00;33.67;;;8.80;99.90;;;;;;5054266;28;20598;-76
2021/03/09 08:57:27;;;;;;;60.30;33.42;;;8.90;99.90;;;;;;5074875;28;20170;-75
2021/03/09 09:00:00;;;;;;;65.00;34.38;;;9.00;99.90;;;;;;5072656;28;20247;-75
2021/03/09 09:02:27;;;;;;;61.60;34.55;;;9.00;99.90;;;;;;5042116;28;20194;-75
2021/03/09 09:04:59;;;;;;;64.63;35.00;;;9.20;99.90;;;;;;5036436;28;20182;-74
2021/03/09 09:07:36;;;;;;;69.07;36.65;;;9.40;99.90;;;;;;5042912;28;20174;-75
2021/03/09 09:10:24;;;;;;;68.95;35.83;;;9.50;99.90;;;;;;5055243;28;20615;-75
2021/03/09 09:12:51;;;;;;;66.70;36.38;;;9.60;99.90;;;;;;5064438;28;20205;-75
2021/03/09 09:15:19;;;;;;;64.65;35.28;;;9.50;99.90;;;;;;5054221;28;20542;-75
2021/03/09 09:17:47;;;;;;;69.78;36.60;;;9.50;99.90;;;;;;5074022;28;20163;-75
2021/03/09 09:20:20;;;;;;;65.78;36.00;;;9.50;99.90;;;;;;5070352;28;20316;-74
2021/03/09 09:22:46;;;;;;;66.78;36.35;;;9.60;99.90;;;;;;5072563;28;20186;-75
2021/03/09 09:25:13;;;;;;;66.57;35.28;;;9.80;99.90;;;;;;5045165;28;20252;-75
2021/03/09 09:27:54;;;;;;;62.70;35.60;;;10.30;99.90;;;;;;5071573;28;20191;-75
2021/03/09 09:30:32;;;;;;;66.43;35.50;;;10.90;99.90;;;;;;5072740;28;20178;-75
2021/03/09 09:32:58;;;;;;;65.97;34.95;;;11.10;99.90;;;;;;5057300;28;20588;-76
2021/03/09 09:35:29;;;;;;;60.47;33.65;;;11.30;99.90;;;;;;5039933;28;20223;-75
2021/03/09 09:38:11;;;;;;;62.25;34.53;;;10.90;99.90;;;;;;5048310;28;20543;-74
2021/03/09 09:40:52;;;;;;;65.47;35.70;;;10.80;99.90;;;;;;5053701;28;20756;-75
2021/03/09 09:43:20;;;;;;;68.57;36.47;;;10.80;99.90;;;;;;5035738;28;20509;-75
2021/03/09 09:45:50;;;;;;;68.40;35.05;;;10.90;99.90;;;;;;5053347;28;20179;-75
2021/03/09 09:48:22;;;;;;;70.43;34.75;;;11.00;99.90;;;;;;5035925;28;20532;-75
2021/03/09 09:50:53;;;;;;;65.13;34.33;;;11.10;99.90;;;;;;5053597;28;20164;-76
2021/03/09 09:53:39;;;;;;;64.07;34.35;;;11.30;99.90;;;;;;5035641;28;20666;-75
2021/03/09 09:56:10;;;;;;;61.40;34.20;;;11.70;99.90;;;;;;5053558;28;20565;-75
2021/03/09 09:59:02;;;;;;;54.95;32.42;;;12.00;99.90;;;;;;5053378;28;20635;-77
2021/03/09 10:01:36;;;;;;;53.70;32.78;;;12.30;99.90;;;;;;5048372;28;20210;-75
2021/03/09 10:04:06;;;;;;;55.33;31.73;;;12.20;99.90;;;;;;5035152;28;20172;-75
2021/03/09 10:06:49;;;;;;;52.10;30.65;;;12.20;99.90;;;;;;5052860;28;20627;-75
2021/03/09 10:09:19;;;;;;;54.10;31.65;;;12.30;99.90;;;;;;5053487;28;20171;-76
2021/03/09 10:11:46;;;;;;;59.40;32.85;;;12.30;99.90;;;;;;5053186;28;20191;-76
2021/03/09 10:14:12;;;;;;;55.80;32.15;;;12.10;99.90;;;;;;5014986;28;20180;-77
2021/03/09 10:16:40;;;;;;;63.28;31.85;;;12.10;99.90;;;;;;4999475;28;20262;-76
2021/03/09 10:19:07;;;;;;;75.05;39.90;;;11.80;99.90;;;;;;5015883;28;20172;-76
2021/03/09 10:21:34;;;;;;;73.50;42.33;;;11.90;99.90;;;;;;5033278;28;20175;-74
2021/03/09 10:24:02;;;;;;;71.70;41.90;;;12.20;99.90;;;;;;5050859;28;20186;-75
2021/03/09 10:26:41;;;;;;;85.07;43.25;;;12.80;99.90;;;;;;5034918;28;20771;-75
2021/03/09 10:29:17;;;;;;;63.10;38.50;;;13.10;99.90;;;;;;5053333;28;20163;-75
2021/03/09 10:31:48;;;;;;;53.45;28.90;;;13.20;99.90;;;;;;5053495;28;20194;-75
2021/03/09 10:34:16;;;;;;;43.30;27.92;;;13.20;99.90;;;;;;5052211;28;20187;-75
2021/03/09 10:37:02;;;;;;;40.45;26.55;;;13.10;99.90;;;;;;5052713;28;20171;-75
2021/03/09 10:39:30;;;;;;;42.30;27.08;;;12.80;99.90;;;;;;5053288;28;20198;-75
2021/03/09 10:41:56;;;;;;;38.72;26.00;;;12.50;99.90;;;;;;5053134;28;20632;-75
2021/03/09 10:44:34;;;;;;;40.20;26.00;;;12.30;99.90;;;;;;5034761;28;20179;-75
2021/03/09 10:47:07;;;;;;;42.10;25.13;;;12.30;99.90;;;;;;5034384;28;20647;-75
2021/03/09 10:49:33;;;;;;;39.67;24.58;;;12.30;99.90;;;;;;5035188;28;20210;-75
2021/03/09 10:52:01;;;;;;;41.38;26.45;;;12.30;99.90;;;;;;5052761;28;20195;-76
2021/03/09 10:54:27;;;;;;;47.90;27.30;;;12.10;99.90;;;;;;5052591;28;20179;-76
2021/03/09 10:56:53;;;;;;;42.17;26.13;;;12.00;99.90;;;;;;5053013;28;20282;-75
2021/03/09 10:59:18;;;;;;;39.05;25.33;;;11.70;99.90;;;;;;5045595;28;20694;-75
2021/03/09 11:01:44;;;;;;;43.08;26.63;;;11.50;99.90;;;;;;5036077;28;20199;-75
2021/03/09 11:04:10;;;;;;;39.97;26.67;;;11.20;99.90;;;;;;5034992;28;20173;-74
2021/03/09 11:06:35;;;;;;;44.10;27.52;;;11.10;99.90;;;;;;5052362;28;20496;-74
2021/03/09 11:09:01;;;;;;;37.13;25.55;;;11.20;99.90;;;;;;5033939;28;20587;-76
2021/03/09 11:11:27;;;;;;;40.03;25.70;;;11.60;99.90;;;;;;5050949;28;20206;-78
2021/03/09 11:13:52;;;;;;;38.65;25.02;;;13.40;99.90;;;;;;5034859;28;20172;-76
2021/03/09 11:16:18;;;;;;;34.90;23.33;;;15.50;99.90;;;;;;5051898;28;20175;-76
2021/03/09 11:18:43;;;;;;;29.63;22.20;;;17.00;99.90;;;;;;5028532;28;20175;-76
2021/03/09 11:21:10;;;;;;;30.80;21.10;;;18.40;99.90;;;;;;5052796;28;20179;-76
2021/03/09 11:23:36;;;;;;;28.75;20.15;;;18.50;99.90;;;;;;5018556;28;20266;-76
2021/03/09 11:26:02;;;;;;;20.70;18.48;;;17.20;99.90;;;;;;5052696;28;20164;-76
2021/03/09 11:28:28;;;;;;;22.02;18.70;;;16.40;99.90;;;;;;5052598;28;20168;-77
2021/03/09 11:30:53;;;;;;;25.48;20.65;;;15.50;99.90;;;;;;5052339;28;20179;-78
2021/03/09 11:33:19;;;;;;;33.20;21.42;;;14.70;99.90;;;;;;5035141;28;20268;-76
2021/03/09 11:35:45;;;;;;;30.38;21.35;;;13.90;99.90;;;;;;5050058;28;20649;-77
2021/03/09 11:38:10;;;;;;;25.08;20.00;;;13.50;99.90;;;;;;5052378;28;20266;-76
2021/03/09 11:40:36;;;;;;;30.27;21.55;;;12.90;99.90;;;;;;5037728;28;20270;-76
2021/03/09 11:43:02;;;;;;;28.42;21.95;;;12.50;99.90;;;;;;5056061;28;20598;-77
2021/03/09 11:45:28;;;;;;;31.48;21.45;;;12.30;99.90;;;;;;5032906;28;20178;-76
2021/03/09 11:47:53;;;;;;;32.90;21.95;;;12.10;99.90;;;;;;5044819;28;20269;-78
2021/03/09 11:50:19;;;;;;;32.42;21.50;;;11.90;99.90;;;;;;5048542;28;20186;-76
2021/03/09 11:52:45;;;;;;;32.78;23.48;;;11.60;99.90;;;;;;5062158;28;20210;-75
2021/03/09 11:55:12;;;;;;;28.83;21.73;;;11.60;99.90;;;;;;5067656;28;20179;-75
2021/03/09 11:57:37;;;;;;;30.17;21.13;;;11.30;99.90;;;;;;5067449;28;20182;-77
2021/03/09 12:00:06;;;;;;;26.42;20.92;;;11.10;99.90;;;;;;5067322;28;20535;-77
2021/03/09 12:02:32;;;;;;;29.65;21.55;;;10.90;99.90;;;;;;5049418;28;20367;-77
2021/03/09 12:04:58;;;;;;;32.47;20.83;;;10.70;99.90;;;;;;5043875;28;20172;-77
2021/03/09 12:07:24;;;;;;;31.92;20.15;;;10.80;99.90;;;;;;5062470;28;20170;-77
2021/03/09 12:09:50;;;;;;;29.45;19.77;;;10.80;99.90;;;;;;5061161;28;20205;-78
2021/03/09 12:12:16;;;;;;;27.02;19.95;;;10.80;99.90;;;;;;5047787;28;20199;-75
2021/03/09 12:14:41;;;;;;;32.13;20.73;;;10.70;99.90;;;;;;5062483;28;20171;-76
2021/03/09 12:17:07;;;;;;;29.05;20.55;;;10.80;99.90;;;;;;5061261;28;20176;-76
2021/03/09 12:19:33;;;;;;;29.65;20.40;;;11.00;99.90;;;;;;5060916;28;20679;-77
2021/03/09 12:21:58;;;;;;;27.30;21.17;;;11.20;99.90;;;;;;5042655;28;20170;-77
2021/03/09 12:24:24;;;;;;;27.55;19.27;;;11.50;99.90;;;;;;5058107;28;20253;-77
2021/03/09 12:26:50;;;;;;;22.58;17.83;;;11.80;99.90;;;;;;5041935;28;20191;-79
2021/03/09 12:29:15;;;;;;;27.05;18.98;;;11.90;99.90;;;;;;5047591;28;20176;-77
2021/03/09 12:31:41;;;;;;;19.83;17.77;;;12.00;99.90;;;;;;5063797;28;20208;-78
2021/03/09 12:34:07;;;;;;;20.98;17.88;;;12.10;99.90;;;;;;5039449;28;20186;-76
2021/03/09 12:36:32;;;;;;;25.90;18.10;;;12.00;99.90;;;;;;5031507;28;20650;-76
2021/03/09 12:38:58;;;;;;;23.35;19.63;;;11.70;99.90;;;;;;5054589;28;20209;-76
2021/03/09 12:41:24;;;;;;;28.05;20.52;;;11.40;99.90;;;;;;5049409;28;20183;-76
2021/03/09 12:43:50;;;;;;;29.63;21.55;;;11.30;99.90;;;;;;5053908;28;20176;-76
2021/03/09 12:46:16;;;;;;;31.65;22.27;;;11.30;99.90;;;;;;5036707;28;20175;-76